Time;durP1;ratioP1;P1;durP2;ratioP2;P2;SDS_P1;SDS_P2;PMS_P1;PMS_P2;Temp;Humidity;BMP_temperature;BMP_pressure;BME280_temperature;BME280_humidity;BME280_pressure;Samples;Min_cycle;Max_cycle;Signal;HPM_P1;HPM_P2
2021/04/10 00:00:08;;;;;;;1.80;0.20;;;10.90;64.30;11.10;99742.00;;;;333565;29;92138;-94
2021/04/10 00:00:20;;;;;;;3.10;0.20;;;10.90;64.50;11.10;99744.00;;;;331057;29;96508;-94
2021/04/10 00:00:31;;;;;;;3.05;0.25;;;10.80;64.70;11.10;99736.00;;;;331120;29;91942;-95
2021/04/10 00:00:43;;;;;;;2.38;0.20;;;10.90;65.50;11.10;99753.00;;;;331104;29;95359;-94
2021/04/10 00:00:55;;;;;;;1.80;0.20;;;10.90;65.30;11.10;99753.00;;;;331020;29;92917;-95
2021/04/10 00:01:07;;;;;;;2.47;0.30;;;10.90;65.30;11.10;99747.00;;;;331189;29;96292;-93
2021/04/10 00:01:19;;;;;;;2.95;0.30;;;10.90;65.60;11.10;99765.00;;;;330800;29;92582;-94
2021/04/10 00:01:32;;;;;;;2.58;0.38;;;10.90;65.60;11.10;99744.00;;;;332841;29;96664;-95
2021/04/10 00:01:44;;;;;;;1.80;0.30;;;10.90;65.40;11.10;99735.00;;;;332210;29;91958;-93
2021/04/10 00:01:55;;;;;;;1.10;0.20;;;10.80;65.30;11.10;99750.00;;;;333777;29;95578;-95
2021/04/10 00:02:08;;;;;;;1.00;0.20;;;10.90;64.30;11.00;99748.00;;;;333425;29;91311;-94
2021/04/10 00:02:20;;;;;;;1.20;0.30;;;10.80;64.20;11.10;99745.00;;;;334362;29;96726;-94
2021/04/10 00:02:31;;;;;;;1.00;0.30;;;10.80;64.30;11.10;99732.00;;;;336129;28;91236;-93
2021/04/10 00:02:43;;;;;;;1.10;0.30;;;10.80;65.30;11.10;99738.00;;;;333741;29;95526;-96
2021/04/10 00:02:55;;;;;;;1.92;0.30;;;10.80;63.90;11.10;99749.00;;;;337430;28;92985;-95
2021/04/10 00:03:08;;;;;;;2.67;0.50;;;10.80;64.30;11.10;99734.00;;;;333499;29;96455;-96
2021/04/10 00:03:19;;;;;;;2.75;0.52;;;10.80;65.30;11.10;99746.00;;;;336138;28;92031;-95
2021/04/10 00:03:31;;;;;;;2.13;0.30;;;10.90;65.50;11.10;99743.00;;;;334954;29;94873;-94
2021/04/10 00:03:42;;;;;;;1.85;0.30;;;10.80;65.40;11.10;99740.00;;;;332302;29;91171;-94
2021/04/10 00:03:54;;;;;;;1.95;0.70;;;10.80;65.30;11.10;99738.00;;;;333840;29;94130;-94
2021/04/10 00:04:05;;;;;;;2.38;0.70;;;10.80;65.30;11.10;99742.00;;;;336242;28;91192;-95
2021/04/10 00:04:16;;;;;;;1.95;0.70;;;10.80;65.10;11.10;99742.00;;;;335116;28;96235;-94
2021/04/10 00:04:28;;;;;;;0.90;0.30;;;10.80;64.40;11.00;99744.00;;;;333523;29;91167;-94
2021/04/10 00:04:39;;;;;;;0.68;0.30;;;10.80;64.50;11.00;99743.00;;;;335095;29;95472;-95
2021/04/10 00:04:51;;;;;;;1.60;0.40;;;10.80;64.50;11.00;99740.00;;;;335879;28;93007;-94
2021/04/10 00:05:05;;;;;;;1.90;0.30;;;10.80;65.10;11.00;99737.00;;;;334876;29;97993;-93
2021/04/10 00:05:20;;;;;;;2.25;0.30;;;10.80;65.60;10.90;99737.00;;;;334151;29;91248;-94
2021/04/10 00:05:32;;;;;;;3.15;0.30;;;10.80;65.90;11.00;99740.00;;;;334640;29;94679;-94
2021/04/10 00:05:43;;;;;;;2.70;0.30;;;10.80;65.40;11.00;99740.00;;;;332304;29;91149;-94
2021/04/10 00:05:54;;;;;;;2.35;0.40;;;10.80;65.50;10.90;99741.00;;;;332402;29;96048;-94
2021/04/10 00:06:06;;;;;;;3.13;0.40;;;10.80;65.70;11.00;99740.00;;;;333482;29;91153;-94
2021/04/10 00:06:17;;;;;;;3.25;0.40;;;10.80;65.70;11.00;99746.00;;;;332335;29;92921;-94
2021/04/10 00:06:28;;;;;;;2.22;0.40;;;10.80;66.20;11.10;99738.00;;;;333223;29;92542;-94
2021/04/10 00:06:41;;;;;;;3.00;0.55;;;10.80;66.30;10.90;99736.00;;;;332443;29;95515;-93
2021/04/10 00:06:53;;;;;;;5.88;0.82;;;10.80;66.50;10.90;99737.00;;;;332162;29;92931;-94
2021/04/10 00:07:04;;;;;;;5.70;0.80;;;10.70;65.40;10.80;99739.00;;;;333069;29;96038;-92
2021/04/10 00:07:16;;;;;;;4.00;0.60;;;10.70;65.00;10.80;99733.00;;;;333345;29;91352;-92
2021/04/10 00:07:27;;;;;;;1.02;0.20;;;10.70;65.00;10.80;99738.00;;;;334149;29;98797;-93
2021/04/10 00:07:39;;;;;;;0.98;0.20;;;10.70;65.50;10.90;99736.00;;;;332958;29;91245;-94
2021/04/10 00:07:51;;;;;;;1.35;0.20;;;10.60;65.90;10.90;99741.00;;;;331855;29;93932;-94
2021/04/10 00:08:04;;;;;;;1.52;0.30;;;10.70;66.30;11.00;99738.00;;;;334172;29;92038;-94
2021/04/10 00:08:15;;;;;;;2.35;0.38;;;10.70;67.20;11.00;99728.00;;;;329143;29;96334;-94
2021/04/10 00:08:27;;;;;;;2.67;0.75;;;10.70;67.10;10.90;99730.00;;;;331769;29;91129;-94
2021/04/10 00:08:38;;;;;;;2.70;0.80;;;10.70;66.60;10.80;99738.00;;;;335761;29;92421;-94
2021/04/10 00:08:50;;;;;;;1.88;0.80;;;10.70;66.10;10.80;99739.00;;;;334270;29;92884;-93
2021/04/10 00:09:03;;;;;;;2.47;0.57;;;10.70;65.70;10.80;99741.00;;;;332982;29;93599;-93
2021/04/10 00:09:15;;;;;;;2.33;0.40;;;10.60;65.60;10.90;99729.00;;;;332791;29;91997;-93
2021/04/10 00:09:26;;;;;;;1.40;0.32;;;10.60;65.70;10.90;99733.00;;;;334283;29;95650;-94
2021/04/10 00:09:38;;;;;;;1.23;0.30;;;10.70;65.80;10.90;99734.00;;;;332751;29;91421;-93
2021/04/10 00:09:49;;;;;;;1.13;0.25;;;10.60;65.60;10.90;99742.00;;;;332907;29;92974;-93
2021/04/10 00:10:03;;;;;;;1.45;0.25;;;10.60;65.30;10.90;99736.00;;;;334189;29;92196;-94
2021/04/10 00:10:15;;;;;;;1.63;0.30;;;10.60;65.70;10.90;99739.00;;;;335954;28;96912;-94
2021/04/10 00:10:28;;;;;;;1.20;0.30;;;10.60;65.90;10.90;99733.00;;;;334016;29;91261;-93
2021/04/10 00:10:39;;;;;;;0.90;0.22;;;10.60;65.90;10.80;99731.00;;;;331589;29;96595;-94
2021/04/10 00:10:51;;;;;;;2.90;0.30;;;10.60;66.00;10.80;99736.00;;;;331450;29;93214;-94
2021/04/10 00:11:02;;;;;;;3.10;0.30;;;10.60;66.50;10.90;99742.00;;;;330298;29;97304;-94
2021/04/10 00:11:14;;;;;;;2.58;0.20;;;10.60;66.10;10.80;99728.00;;;;332715;29;91179;-94
2021/04/10 00:11:26;;;;;;;1.40;0.20;;;10.60;65.70;10.80;99736.00;;;;331099;29;95562;-94
2021/04/10 00:11:37;;;;;;;1.23;0.20;;;10.60;66.10;10.80;99729.00;;;;333274;29;92042;-93
2021/04/10 00:11:49;;;;;;;1.80;0.20;;;10.60;66.50;10.80;99730.00;;;;332212;29;96678;-93
2021/04/10 00:12:00;;;;;;;2.15;0.30;;;10.60;66.20;10.70;99730.00;;;;332111;29;92008;-94
2021/04/10 00:12:12;;;;;;;1.95;0.30;;;10.60;66.00;10.80;99727.00;;;;332284;29;93911;-94
2021/04/10 00:12:23;;;;;;;1.13;0.40;;;10.60;66.20;10.80;99738.00;;;;333373;29;91120;-95
2021/04/10 00:12:35;;;;;;;2.90;0.50;;;10.60;66.70;10.90;99733.00;;;;332288;29;96568;-95
2021/04/10 00:12:46;;;;;;;4.15;0.60;;;10.60;67.10;10.90;99733.00;;;;334800;29;92281;-95
2021/04/10 00:12:58;;;;;;;3.72;0.45;;;10.60;67.30;10.90;99717.00;;;;334661;29;96921;-95
2021/04/10 00:13:09;;;;;;;2.90;0.40;;;10.60;67.70;10.90;99728.00;;;;334773;29;91250;-95
2021/04/10 00:13:21;;;;;;;1.52;0.30;;;10.60;67.10;10.80;99727.00;;;;334303;29;95500;-94
2021/04/10 00:13:33;;;;;;;0.88;0.30;;;10.60;67.10;10.80;99726.00;;;;334565;29;92094;-94
2021/04/10 00:13:44;;;;;;;1.50;0.40;;;10.60;67.30;10.80;99732.00;;;;336364;28;95701;-94
2021/04/10 00:13:55;;;;;;;1.45;0.40;;;10.50;67.40;10.80;99727.00;;;;336099;28;91086;-95
2021/04/10 00:14:07;;;;;;;1.63;0.47;;;10.60;68.10;10.80;99730.00;;;;335049;29;93717;-93
2021/04/10 00:14:19;;;;;;;1.40;0.40;;;10.50;66.80;10.80;99727.00;;;;336459;28;92131;-95
2021/04/10 00:14:30;;;;;;;1.50;0.40;;;10.50;66.80;10.80;99732.00;;;;335261;29;96201;-94
2021/04/10 00:14:42;;;;;;;1.33;0.30;;;10.50;66.90;10.80;99728.00;;;;333881;29;92068;-94
2021/04/10 00:14:53;;;;;;;1.27;0.30;;;10.50;67.00;10.80;99723.00;;;;334009;29;96130;-94
2021/04/10 00:15:07;;;;;;;1.90;0.30;;;10.50;67.30;10.70;99729.00;;;;335105;29;92022;-94
2021/04/10 00:15:19;;;;;;;2.10;0.45;;;10.50;67.00;10.70;99721.00;;;;332399;29;91783;-93
2021/04/10 00:15:31;;;;;;;2.22;0.65;;;10.50;67.10;10.70;99719.00;;;;331220;29;92052;-94
2021/04/10 00:15:42;;;;;;;2.22;0.93;;;10.50;67.20;10.70;99721.00;;;;332685;29;97295;-94
2021/04/10 00:15:57;;;;;;;2.08;0.80;;;10.50;67.10;10.80;99722.00;;;;332601;29;91143;-95
2021/04/10 00:16:09;;;;;;;2.13;0.43;;;10.50;67.30;10.80;99723.00;;;;333860;29;97245;-93
2021/04/10 00:16:20;;;;;;;2.30;0.40;;;10.50;67.50;10.80;99722.00;;;;333236;29;91342;-95
2021/04/10 00:16:32;;;;;;;2.10;0.40;;;10.50;67.90;10.80;99718.00;;;;335320;29;93162;-94
2021/04/10 00:16:44;;;;;;;2.30;0.50;;;10.50;67.80;10.70;99721.00;;;;333800;29;92806;-94
2021/04/10 00:16:55;;;;;;;3.65;0.70;;;10.50;68.10;10.70;99726.00;;;;333967;29;96758;-95
2021/04/10 00:17:07;;;;;;;2.50;0.70;;;10.50;68.10;10.70;99720.00;;;;333845;29;91091;-94
2021/04/10 00:17:18;;;;;;;2.58;0.63;;;10.40;68.20;10.60;99720.00;;;;332732;29;95243;-94
2021/04/10 00:17:30;;;;;;;1.38;0.40;;;10.40;67.80;10.60;99721.00;;;;333863;29;91101;-93
2021/04/10 00:17:41;;;;;;;1.30;0.32;;;10.40;68.30;10.70;99720.00;;;;332818;29;93779;-94
2021/04/10 00:17:53;;;;;;;2.70;0.55;;;10.40;68.10;10.70;99716.00;;;;333887;29;91992;-93
2021/04/10 00:18:04;;;;;;;4.35;1.15;;;10.40;67.80;10.70;99717.00;;;;330017;29;96557;-94
2021/04/10 00:18:16;;;;;;;4.25;1.10;;;10.40;67.60;10.70;99721.00;;;;331192;29;91944;-94
2021/04/10 00:18:28;;;;;;;2.58;0.50;;;10.40;67.40;10.60;99722.00;;;;331493;29;96413;-94
2021/04/10 00:18:39;;;;;;;1.13;0.20;;;10.40;67.00;10.60;99715.00;;;;333891;29;92060;-94
2021/04/10 00:18:50;;;;;;;1.70;0.30;;;10.40;66.80;10.70;99717.00;;;;333933;29;97300;-93
2021/04/10 00:19:02;;;;;;;1.92;0.32;;;10.40;66.70;10.70;99718.00;;;;331292;29;91084;-94
2021/04/10 00:19:13;;;;;;;1.50;0.30;;;10.40;66.80;10.70;99716.00;;;;333276;29;95589;-95
2021/04/10 00:19:25;;;;;;;1.38;0.30;;;10.40;67.30;10.70;99721.00;;;;334736;29;91939;-94
2021/04/10 00:19:36;;;;;;;2.38;0.30;;;10.40;67.70;10.70;99718.00;;;;334736;29;96773;-93
2021/04/10 00:19:48;;;;;;;2.90;0.30;;;10.40;68.10;10.60;99716.00;;;;334658;29;92003;-93
2021/04/10 00:19:59;;;;;;;2.35;0.38;;;10.40;67.80;10.60;99720.00;;;;334846;29;95336;-94
2021/04/10 00:20:18;;;;;;;1.33;0.40;;;10.40;67.80;10.70;99727.00;;;;333377;29;91159;-94
2021/04/10 00:20:29;;;;;;;1.20;0.30;;;10.40;67.70;10.70;99708.00;;;;330520;29;96586;-93
2021/04/10 00:20:41;;;;;;;1.20;0.30;;;10.40;68.10;10.60;99718.00;;;;331969;29;92945;-93
2021/04/10 00:20:52;;;;;;;0.90;0.20;;;10.40;67.90;10.60;99711.00;;;;333309;29;97431;-93
2021/04/10 00:21:03;;;;;;;1.17;0.20;;;10.40;67.10;10.60;99710.00;;;;334639;29;91145;-93
2021/04/10 00:21:15;;;;;;;1.50;0.30;;;10.40;66.20;10.60;99712.00;;;;333574;29;93818;-94
2021/04/10 00:21:26;;;;;;;2.33;0.40;;;10.30;65.50;10.60;99706.00;;;;333246;29;92101;-93
2021/04/10 00:21:37;;;;;;;1.90;0.60;;;10.30;65.40;10.60;99715.00;;;;330882;29;95649;-94
2021/04/10 00:21:49;;;;;;;1.30;0.50;;;10.30;66.20;10.60;99710.00;;;;333372;29;91935;-93
2021/04/10 00:22:00;;;;;;;2.08;0.35;;;10.40;66.50;10.70;99712.00;;;;332217;29;97119;-94
2021/04/10 00:22:12;;;;;;;2.75;0.30;;;10.40;66.70;10.70;99720.00;;;;332927;29;92093;-93
2021/04/10 00:22:23;;;;;;;2.78;0.30;;;10.40;67.20;10.60;99720.00;;;;334551;29;97306;-95
2021/04/10 00:22:34;;;;;;;1.55;0.50;;;10.30;67.20;10.60;99722.00;;;;333024;29;93192;-94
2021/04/10 00:22:47;;;;;;;1.33;0.40;;;10.30;66.80;10.60;99719.00;;;;334690;29;97067;-95
2021/04/10 00:22:58;;;;;;;2.20;0.50;;;10.30;66.90;10.60;99704.00;;;;333028;29;92339;-94
2021/04/10 00:23:10;;;;;;;2.15;0.38;;;10.30;67.20;10.70;99713.00;;;;332048;29;94638;-95
2021/04/10 00:23:21;;;;;;;2.38;0.50;;;10.30;67.30;10.70;99708.00;;;;335201;28;92112;-96
2021/04/10 00:23:32;;;;;;;2.08;0.40;;;10.30;66.70;10.70;99707.00;;;;335946;28;96667;-95
2021/04/10 00:23:44;;;;;;;1.98;0.45;;;10.40;66.90;10.80;99706.00;;;;335916;28;92003;-96
2021/04/10 00:23:55;;;;;;;1.27;0.40;;;10.40;66.70;10.80;99713.00;;;;334777;29;96779;-96
2021/04/10 00:24:08;;;;;;;1.15;0.30;;;10.40;66.80;10.70;99714.00;;;;333290;29;92010;-95
2021/04/10 00:24:20;;;;;;;1.30;0.20;;;10.40;67.10;10.70;99708.00;;;;332263;29;96627;-95
2021/04/10 00:24:31;;;;;;;1.08;0.20;;;10.40;66.20;10.70;99719.00;;;;333323;29;92950;-95
2021/04/10 00:24:42;;;;;;;1.10;0.22;;;10.40;66.00;10.70;99717.00;;;;334961;29;98081;-96
2021/04/10 00:24:54;;;;;;;0.73;0.20;;;10.40;66.90;10.70;99709.00;;;;333312;29;91178;-96
2021/04/10 00:25:06;;;;;;;0.95;0.30;;;10.40;66.80;10.70;99712.00;;;;332846;29;95273;-96
2021/04/10 00:25:19;;;;;;;3.20;0.38;;;10.40;66.80;10.70;99712.00;;;;334653;28;92329;-95
2021/04/10 00:25:30;;;;;;;3.40;0.50;;;10.40;66.70;10.80;99719.00;;;;333728;29;95366;-96
2021/04/10 00:25:41;;;;;;;2.92;0.50;;;10.40;66.70;10.80;99706.00;;;;333418;29;92104;-94
2021/04/10 00:25:53;;;;;;;1.25;0.40;;;10.40;67.50;10.80;99706.00;;;;333104;29;92707;-95
2021/04/10 00:26:04;;;;;;;0.82;0.30;;;10.40;67.80;10.70;99712.00;;;;333876;29;91875;-92
2021/04/10 00:26:16;;;;;;;1.23;0.20;;;10.40;67.30;10.60;99710.00;;;;332479;29;95842;-93
2021/04/10 00:26:27;;;;;;;1.33;0.20;;;10.40;67.30;10.70;99701.00;;;;332349;29;92883;-94
2021/04/10 00:26:39;;;;;;;3.10;0.30;;;10.40;67.20;10.80;99718.00;;;;332294;29;95481;-94
2021/04/10 00:26:50;;;;;;;3.47;0.35;;;10.40;67.00;10.70;99716.00;;;;332426;29;91965;-92
2021/04/10 00:27:01;;;;;;;3.60;0.38;;;10.40;67.00;10.70;99716.00;;;;332628;29;97143;-94
2021/04/10 00:27:13;;;;;;;1.98;0.40;;;10.40;66.70;10.70;99715.00;;;;332101;29;91986;-94
2021/04/10 00:27:24;;;;;;;1.27;0.30;;;10.40;66.70;10.70;99716.00;;;;332095;29;95537;-93
2021/04/10 00:27:35;;;;;;;0.70;0.22;;;10.40;66.70;10.70;99712.00;;;;332420;29;91183;-93
2021/04/10 00:27:48;;;;;;;1.08;0.40;;;10.50;67.00;10.70;99716.00;;;;334027;29;97475;-94
2021/04/10 00:28:00;;;;;;;1.50;0.45;;;10.40;66.70;10.70;99713.00;;;;333592;29;91935;-93
2021/04/10 00:28:11;;;;;;;1.48;0.40;;;10.40;66.50;10.80;99708.00;;;;333580;29;96250;-93
2021/04/10 00:28:22;;;;;;;1.92;0.30;;;10.40;66.30;10.80;99709.00;;;;332071;29;93079;-94
2021/04/10 00:28:34;;;;;;;1.90;0.30;;;10.50;66.20;10.80;99712.00;;;;330938;29;98058;-94
2021/04/10 00:28:45;;;;;;;1.80;0.22;;;10.50;66.20;10.70;99713.00;;;;333603;29;91311;-93
2021/04/10 00:28:56;;;;;;;1.30;0.20;;;10.50;66.40;10.70;99716.00;;;;332266;29;96572;-95
2021/04/10 00:29:08;;;;;;;1.92;0.20;;;10.50;66.60;10.80;99709.00;;;;336106;28;91120;-94
2021/04/10 00:29:19;;;;;;;1.90;0.28;;;10.40;66.90;10.80;99707.00;;;;332445;29;94858;-94
2021/04/10 00:29:31;;;;;;;1.90;0.30;;;10.50;66.30;10.70;99703.00;;;;333271;29;91992;-94
2021/04/10 00:29:42;;;;;;;1.20;0.30;;;10.50;65.50;10.70;99711.00;;;;332443;29;97082;-93
2021/04/10 00:29:53;;;;;;;1.08;0.30;;;10.50;64.90;10.80;99713.00;;;;334692;29;92188;-95
2021/04/10 00:30:06;;;;;;;1.45;0.30;;;10.50;65.00;10.80;99713.00;;;;333717;29;96455;-94
2021/04/10 00:30:18;;;;;;;2.10;0.30;;;10.50;65.80;10.80;99718.00;;;;333390;29;92239;-94
2021/04/10 00:30:34;;;;;;;2.03;0.40;;;10.50;66.00;10.70;99714.00;;;;333491;29;96385;-94
2021/04/10 00:30:46;;;;;;;1.90;0.40;;;10.50;65.90;10.70;99713.00;;;;334699;29;91148;-93
2021/04/10 00:31:06;;;;;;;1.60;0.30;;;10.50;66.00;10.80;99704.00;;;;335990;28;96659;-94
2021/04/10 00:31:18;;;;;;;1.08;0.20;;;10.50;66.20;10.70;99706.00;;;;332095;29;92224;-93
2021/04/10 00:31:29;;;;;;;1.45;0.20;;;10.50;66.70;10.70;99709.00;;;;332898;29;95440;-94
2021/04/10 00:31:41;;;;;;;2.80;0.30;;;10.50;66.30;10.80;99699.00;;;;333320;29;92115;-94
2021/04/10 00:31:52;;;;;;;2.53;0.30;;;10.50;66.40;10.80;99711.00;;;;334803;28;95712;-94
2021/04/10 00:32:04;;;;;;;2.20;0.30;;;10.50;66.60;10.80;99710.00;;;;332116;29;91986;-94
2021/04/10 00:32:15;;;;;;;0.98;0.28;;;10.50;66.80;10.80;99705.00;;;;333622;29;94348;-94
2021/04/10 00:32:27;;;;;;;0.77;0.30;;;10.50;66.80;10.80;99713.00;;;;333194;29;92879;-94
2021/04/10 00:32:38;;;;;;;1.75;0.30;;;10.50;66.80;10.90;99718.00;;;;336055;28;97298;-93
2021/04/10 00:32:49;;;;;;;2.20;0.40;;;10.50;66.60;10.90;99705.00;;;;331994;29;91705;-94
2021/04/10 00:33:01;;;;;;;2.13;0.50;;;10.60;66.70;10.90;99711.00;;;;332151;29;96850;-94
2021/04/10 00:33:12;;;;;;;2.40;0.60;;;10.50;66.70;10.90;99701.00;;;;333269;29;91078;-95
2021/04/10 00:33:24;;;;;;;2.25;0.47;;;10.60;66.90;10.80;99713.00;;;;332209;29;96674;-94
2021/04/10 00:33:39;;;;;;;1.67;0.47;;;10.60;66.80;10.80;99706.00;;;;334554;29;92115;-95
2021/04/10 00:33:51;;;;;;;1.40;0.30;;;10.60;66.80;10.90;99710.00;;;;334805;29;96056;-94
2021/04/10 00:34:02;;;;;;;1.00;0.30;;;10.60;66.80;10.80;99701.00;;;;335886;28;92044;-94
2021/04/10 00:34:13;;;;;;;0.88;0.30;;;10.60;66.80;10.80;99714.00;;;;335624;28;97185;-94
2021/04/10 00:34:24;;;;;;;0.98;0.30;;;10.60;66.70;10.80;99701.00;;;;333983;29;93239;-93
2021/04/10 00:34:36;;;;;;;1.10;0.40;;;10.60;66.70;10.80;99702.00;;;;334675;29;96761;-94
2021/04/10 00:34:48;;;;;;;1.15;0.52;;;10.60;66.60;10.80;99715.00;;;;334476;29;92061;-94
2021/04/10 00:34:59;;;;;;;1.73;0.52;;;10.60;66.40;10.80;99712.00;;;;334711;29;96992;-95
2021/04/10 00:35:11;;;;;;;1.70;0.50;;;10.60;66.50;10.70;99711.00;;;;333420;29;91137;-95
2021/04/10 00:35:23;;;;;;;3.00;0.45;;;10.60;66.50;10.80;99710.00;;;;333412;29;96709;-94
2021/04/10 00:35:35;;;;;;;2.50;0.47;;;10.60;66.70;10.80;99716.00;;;;334339;29;91098;-94
2021/04/10 00:35:46;;;;;;;2.60;0.47;;;10.60;67.10;10.80;99708.00;;;;333648;29;93071;-94
2021/04/10 00:35:58;;;;;;;1.60;0.30;;;10.60;66.00;10.70;99708.00;;;;334641;29;92084;-95
2021/04/10 00:36:10;;;;;;;2.13;0.20;;;10.50;65.50;10.80;99712.00;;;;332221;29;96421;-95
2021/04/10 00:36:21;;;;;;;1.85;0.30;;;10.60;65.30;10.80;99717.00;;;;334665;29;92133;-94
2021/04/10 00:36:32;;;;;;;2.40;0.30;;;10.60;65.60;10.80;99707.00;;;;334694;29;97743;-95
2021/04/10 00:36:44;;;;;;;1.50;0.40;;;10.60;66.10;11.00;99698.00;;;;334678;29;91979;-95
2021/04/10 00:36:55;;;;;;;1.92;0.40;;;10.60;65.60;10.90;99708.00;;;;333566;29;94352;-95
2021/04/10 00:37:06;;;;;;;1.65;0.40;;;10.60;66.10;11.00;99712.00;;;;333460;29;90942;-94
2021/04/10 00:37:18;;;;;;;1.67;0.40;;;10.60;65.60;10.90;99711.00;;;;333367;29;95588;-94
2021/04/10 00:37:29;;;;;;;1.45;0.30;;;10.60;65.50;11.00;99707.00;;;;331906;29;91985;-94
2021/04/10 00:37:40;;;;;;;1.52;0.20;;;10.60;65.50;10.90;99709.00;;;;333159;29;95605;-94
2021/04/10 00:37:52;;;;;;;1.33;0.20;;;10.60;65.30;10.80;99717.00;;;;335950;28;91981;-95
2021/04/10 00:38:03;;;;;;;1.48;0.20;;;10.60;65.00;10.80;99709.00;;;;332240;29;95290;-93
2021/04/10 00:38:15;;;;;;;2.22;0.20;;;10.60;64.90;10.80;99711.00;;;;329173;29;93131;-93
2021/04/10 00:38:29;;;;;;;2.33;0.30;;;10.60;65.10;10.80;99712.00;;;;332195;29;96634;-93
2021/04/10 00:38:40;;;;;;;1.90;0.30;;;10.60;65.10;10.80;99709.00;;;;333303;29;92093;-93
2021/04/10 00:38:52;;;;;;;1.70;0.30;;;10.60;65.20;10.80;99709.00;;;;335837;28;95484;-94
2021/04/10 00:39:05;;;;;;;2.83;0.60;;;10.60;65.30;10.80;99707.00;;;;334493;29;91977;-93
2021/04/10 00:39:16;;;;;;;2.63;0.50;;;10.60;65.10;10.80;99701.00;;;;334712;28;95646;-94
2021/04/10 00:39:27;;;;;;;1.60;0.43;;;10.60;65.80;10.90;99709.00;;;;334493;29;92170;-93
2021/04/10 00:39:39;;;;;;;1.80;0.30;;;10.60;65.90;10.90;99708.00;;;;334767;29;93485;-93
2021/04/10 00:39:51;;;;;;;2.33;0.30;;;10.60;65.60;10.90;99718.00;;;;334339;29;91857;-94
2021/04/10 00:40:06;;;;;;;2.65;0.40;;;10.60;65.70;10.80;99711.00;;;;334845;29;96445;-93
2021/04/10 00:40:18;;;;;;;2.88;0.30;;;10.60;65.70;10.80;99710.00;;;;335361;28;93145;-88
2021/04/10 00:40:29;;;;;;;2.08;0.35;;;10.70;65.10;10.80;99709.00;;;;334818;29;98231;-92
2021/04/10 00:40:40;;;;;;;2.20;0.40;;;10.60;64.70;10.80;99709.00;;;;336005;28;92079;-94
2021/04/10 00:40:52;;;;;;;2.88;0.55;;;10.60;64.60;10.80;99698.00;;;;330765;29;96854;-93
2021/04/10 00:41:04;;;;;;;2.40;0.50;;;10.60;64.40;10.80;99709.00;;;;330709;29;91272;-94
2021/04/10 00:41:16;;;;;;;1.48;0.32;;;10.60;63.80;10.80;99709.00;;;;333742;29;93933;-93
2021/04/10 00:41:27;;;;;;;1.70;0.25;;;10.60;64.00;10.90;99714.00;;;;331732;29;92210;-93
2021/04/10 00:41:38;;;;;;;1.98;0.20;;;10.60;64.20;11.00;99704.00;;;;333444;29;96539;-94
2021/04/10 00:41:50;;;;;;;2.72;0.30;;;10.60;64.60;11.00;99705.00;;;;333172;29;91907;-93
2021/04/10 00:42:01;;;;;;;1.75;0.47;;;10.60;64.90;10.90;99711.00;;;;334734;29;94660;-94
2021/04/10 00:42:13;;;;;;;2.20;0.50;;;10.60;65.10;11.00;99699.00;;;;333283;29;93021;-94
2021/04/10 00:42:24;;;;;;;2.50;0.38;;;10.60;65.10;11.00;99701.00;;;;332228;29;93716;-94
2021/04/10 00:42:36;;;;;;;3.05;0.25;;;10.60;65.30;11.00;99702.00;;;;333217;29;91940;-92
2021/04/10 00:42:47;;;;;;;3.47;0.90;;;10.70;65.40;11.00;99708.00;;;;335770;28;96580;-94
2021/04/10 00:42:58;;;;;;;3.35;0.98;;;10.70;65.90;11.10;99701.00;;;;333142;29;92103;-94
2021/04/10 00:43:11;;;;;;;1.83;0.60;;;10.70;65.20;11.00;99705.00;;;;334711;29;96722;-94
2021/04/10 00:43:22;;;;;;;1.45;0.30;;;10.70;65.10;11.00;99697.00;;;;335439;28;92151;-94
2021/04/10 00:43:34;;;;;;;1.35;0.30;;;10.70;65.00;10.90;99701.00;;;;333081;28;96034;-94
2021/04/10 00:43:45;;;;;;;1.15;0.28;;;10.70;65.20;11.00;99701.00;;;;334635;29;91118;-95
2021/04/10 00:43:56;;;;;;;0.85;0.20;;;10.70;65.40;11.10;99696.00;;;;333560;29;95406;-94
2021/04/10 00:44:08;;;;;;;0.80;0.28;;;10.70;65.20;11.00;99704.00;;;;333239;29;93052;-94
2021/04/10 00:44:19;;;;;;;0.77;0.25;;;10.70;64.50;11.00;99701.00;;;;333442;29;96294;-94
2021/04/10 00:44:30;;;;;;;0.95;0.30;;;10.70;64.10;11.00;99696.00;;;;333225;29;92155;-94
2021/04/10 00:44:42;;;;;;;0.85;0.25;;;10.70;64.30;11.10;99703.00;;;;336064;28;94578;-94
2021/04/10 00:44:53;;;;;;;0.95;0.30;;;10.70;64.90;11.10;99698.00;;;;333255;29;92114;-93
2021/04/10 00:45:07;;;;;;;1.38;0.40;;;10.80;64.80;11.00;99700.00;;;;334866;29;95773;-94
2021/04/10 00:45:18;;;;;;;1.75;0.47;;;10.80;64.70;11.00;99702.00;;;;333371;29;91991;-94
2021/04/10 00:45:30;;;;;;;1.98;0.50;;;10.70;64.30;10.90;99697.00;;;;335884;28;96609;-93
2021/04/10 00:45:41;;;;;;;3.22;0.43;;;10.70;64.20;11.10;99697.00;;;;333410;29;91281;-93
2021/04/10 00:45:52;;;;;;;3.28;0.40;;;10.70;64.10;11.10;99699.00;;;;335904;28;96935;-93
2021/04/10 00:46:05;;;;;;;2.47;0.32;;;10.80;64.20;11.10;99699.00;;;;334530;29;92971;-93
2021/04/10 00:46:17;;;;;;;1.67;0.30;;;10.80;64.30;11.00;99697.00;;;;335775;28;93411;-93
2021/04/10 00:46:28;;;;;;;0.98;0.30;;;10.80;64.00;11.00;99703.00;;;;334910;28;91925;-92
2021/04/10 00:46:40;;;;;;;1.27;0.30;;;10.80;64.00;11.10;99703.00;;;;334585;29;95719;-93
2021/04/10 00:46:51;;;;;;;1.15;0.35;;;10.80;63.90;11.00;99693.00;;;;330687;29;92016;-93
2021/04/10 00:47:02;;;;;;;2.15;0.30;;;10.80;64.00;11.00;99686.00;;;;332134;29;97526;-93
2021/04/10 00:47:14;;;;;;;2.05;0.30;;;10.80;63.90;11.10;99697.00;;;;335844;28;91997;-93
2021/04/10 00:47:25;;;;;;;2.03;0.40;;;10.80;64.80;11.10;99693.00;;;;333407;29;97530;-92
2021/04/10 00:47:37;;;;;;;1.48;0.32;;;10.80;64.70;11.10;99682.00;;;;333503;29;91856;-93
2021/04/10 00:47:48;;;;;;;1.45;0.28;;;10.80;65.30;11.10;99694.00;;;;332195;29;95296;-93
2021/04/10 00:48:00;;;;;;;1.30;0.28;;;10.80;65.20;11.20;99689.00;;;;330659;29;92898;-93
2021/04/10 00:48:11;;;;;;;1.42;0.30;;;10.80;64.60;11.20;99686.00;;;;336091;28;94611;-93
2021/04/10 00:48:22;;;;;;;1.40;0.40;;;10.80;64.90;11.20;99685.00;;;;331969;29;91805;-94
2021/04/10 00:48:34;;;;;;;1.40;0.40;;;10.90;65.10;11.00;99684.00;;;;334640;29;95921;-93
2021/04/10 00:48:45;;;;;;;1.25;0.30;;;10.90;65.10;11.10;99692.00;;;;332152;29;92167;-93
2021/04/10 00:48:57;;;;;;;1.10;0.40;;;10.90;64.80;11.10;99694.00;;;;334674;29;96193;-93
2021/04/10 00:49:08;;;;;;;1.23;0.40;;;10.90;64.20;11.00;99684.00;;;;334708;29;91109;-93
2021/04/10 00:49:19;;;;;;;1.20;0.50;;;10.90;63.30;11.00;99683.00;;;;334495;28;95875;-93
2021/04/10 00:49:31;;;;;;;0.90;0.30;;;10.90;63.10;11.00;99685.00;;;;335918;28;92046;-93
2021/04/10 00:49:42;;;;;;;0.90;0.30;;;10.80;62.80;11.00;99675.00;;;;333410;29;96373;-93
2021/04/10 00:49:53;;;;;;;0.98;0.30;;;10.80;62.90;11.00;99684.00;;;;332063;29;92113;-93
2021/04/10 00:50:06;;;;;;;2.17;0.38;;;10.80;63.00;11.00;99692.00;;;;336231;28;94796;-93
2021/04/10 00:50:17;;;;;;;2.80;0.40;;;10.80;63.00;11.00;99692.00;;;;333102;29;92022;-93
2021/04/10 00:50:29;;;;;;;2.97;0.60;;;10.90;63.30;11.00;99682.00;;;;336073;28;96361;-93
2021/04/10 00:50:40;;;;;;;1.50;0.50;;;10.80;63.20;11.10;99698.00;;;;336034;28;91921;-93
2021/04/10 00:50:52;;;;;;;1.60;0.50;;;10.80;63.30;11.00;99689.00;;;;335946;28;96483;-93
2021/04/10 00:51:03;;;;;;;1.70;0.40;;;10.80;63.50;11.10;99685.00;;;;335944;28;91124;-93
2021/04/10 00:51:15;;;;;;;2.33;0.40;;;10.80;63.50;11.00;99685.00;;;;334897;29;95466;-91
2021/04/10 00:51:26;;;;;;;2.25;0.25;;;10.80;63.70;11.00;99685.00;;;;334668;29;92054;-92
2021/04/10 00:51:37;;;;;;;1.90;0.25;;;10.80;63.80;11.00;99684.00;;;;335903;28;96967;-93
2021/04/10 00:51:49;;;;;;;1.42;0.30;;;10.80;63.70;11.00;99687.00;;;;334436;29;92973;-93
2021/04/10 00:52:01;;;;;;;1.20;0.40;;;10.90;63.70;11.10;99685.00;;;;333404;29;96736;-93
2021/04/10 00:52:12;;;;;;;1.60;0.40;;;10.90;63.80;11.10;99682.00;;;;335411;28;91204;-93
2021/04/10 00:52:24;;;;;;;1.52;0.43;;;10.90;64.20;11.20;99680.00;;;;335546;28;97104;-93
2021/04/10 00:52:36;;;;;;;1.33;0.40;;;10.90;64.00;11.10;99689.00;;;;331171;29;92067;-93
2021/04/10 00:52:47;;;;;;;1.48;0.38;;;10.90;63.80;11.10;99682.00;;;;335894;28;95466;-94